sensor_id;sensor_type;location;lat;lon;timestamp;temperature;humidity
63013;DHT22;62113;45.624;11.700;2023-04-03T00:02:05;16.20;54.10
63013;DHT22;62113;45.624;11.700;2023-04-03T00:04:31;16.20;54.10
63013;DHT22;62113;45.624;11.700;2023-04-03T00:06:57;16.20;54.10
63013;DHT22;62113;45.624;11.700;2023-04-03T00:09:22;16.20;54.00
63013;DHT22;62113;45.624;11.700;2023-04-03T00:11:48;16.20;54.00
63013;DHT22;62113;45.624;11.700;2023-04-03T00:14:13;16.20;54.00
63013;DHT22;62113;45.624;11.700;2023-04-03T00:16:39;16.20;53.90
63013;DHT22;62113;45.624;11.700;2023-04-03T00:19:05;16.20;53.80
63013;DHT22;62113;45.624;11.700;2023-04-03T00:21:31;16.20;53.80
63013;DHT22;62113;45.624;11.700;2023-04-03T00:23:56;16.20;53.70
63013;DHT22;62113;45.624;11.700;2023-04-03T00:26:22;16.20;53.70
63013;DHT22;62113;45.624;11.700;2023-04-03T00:28:48;16.10;53.70
63013;DHT22;62113;45.624;11.700;2023-04-03T00:31:16;16.10;53.70
63013;DHT22;62113;45.624;11.700;2023-04-03T00:33:42;16.00;53.80
63013;DHT22;62113;45.624;11.700;2023-04-03T00:36:09;16.00;53.80
63013;DHT22;62113;45.624;11.700;2023-04-03T00:38:36;16.00;53.80
63013;DHT22;62113;45.624;11.700;2023-04-03T00:41:02;16.00;53.90
63013;DHT22;62113;45.624;11.700;2023-04-03T00:43:28;16.00;53.80
63013;DHT22;62113;45.624;11.700;2023-04-03T00:45:57;15.90;53.90
63013;DHT22;62113;45.624;11.700;2023-04-03T00:48:38;15.80;53.80
63013;DHT22;62113;45.624;11.700;2023-04-03T00:51:08;15.80;53.80
63013;DHT22;62113;45.624;11.700;2023-04-03T00:53:41;15.70;53.90
63013;DHT22;62113;45.624;11.700;2023-04-03T00:56:11;15.70;53.90
63013;DHT22;62113;45.624;11.700;2023-04-03T00:58:43;15.70;53.90
63013;DHT22;62113;45.624;11.700;2023-04-03T01:01:12;15.70;53.80
63013;DHT22;62113;45.624;11.700;2023-04-03T01:03:40;15.70;53.80
63013;DHT22;62113;45.624;11.700;2023-04-03T01:06:06;15.70;53.70
63013;DHT22;62113;45.624;11.700;2023-04-03T01:08:32;15.70;53.60
63013;DHT22;62113;45.624;11.700;2023-04-03T01:10:58;15.70;53.50
63013;DHT22;62113;45.624;11.700;2023-04-03T01:13:32;15.70;53.60
63013;DHT22;62113;45.624;11.700;2023-04-03T01:16:02;15.70;53.80
63013;DHT22;62113;45.624;11.700;2023-04-03T01:18:29;15.60;53.70
63013;DHT22;62113;45.624;11.700;2023-04-03T01:24:08;15.50;53.80
63013;DHT22;62113;45.624;11.700;2023-04-03T01:26:36;15.50;54.00
63013;DHT22;62113;45.624;11.700;2023-04-03T01:29:02;15.40;54.00
63013;DHT22;62113;45.624;11.700;2023-04-03T01:34:00;15.40;54.20
63013;DHT22;62113;45.624;11.700;2023-04-03T01:36:30;15.40;54.20
63013;DHT22;62113;45.624;11.700;2023-04-03T01:38:56;15.40;54.20
63013;DHT22;62113;45.624;11.700;2023-04-03T01:41:23;15.40;54.10
63013;DHT22;62113;45.624;11.700;2023-04-03T01:43:49;15.40;54.10
63013;DHT22;62113;45.624;11.700;2023-04-03T01:46:16;15.30;54.00
63013;DHT22;62113;45.624;11.700;2023-04-03T01:48:41;15.30;53.90
63013;DHT22;62113;45.624;11.700;2023-04-03T01:51:07;15.30;54.00
63013;DHT22;62113;45.624;11.700;2023-04-03T01:53:33;15.20;54.00
63013;DHT22;62113;45.624;11.700;2023-04-03T01:55:58;15.20;54.00
63013;DHT22;62113;45.624;11.700;2023-04-03T01:58:24;15.20;54.10
63013;DHT22;62113;45.624;11.700;2023-04-03T02:00:51;15.10;54.20
63013;DHT22;62113;45.624;11.700;2023-04-03T02:03:16;15.00;54.20
63013;DHT22;62113;45.624;11.700;2023-04-03T02:05:42;15.10;54.30
63013;DHT22;62113;45.624;11.700;2023-04-03T02:08:08;14.90;54.30
63013;DHT22;62113;45.624;11.700;2023-04-03T02:10:33;14.80;54.50
63013;DHT22;62113;45.624;11.700;2023-04-03T02:12:59;14.70;54.60
63013;DHT22;62113;45.624;11.700;2023-04-03T02:15:25;14.70;54.60
63013;DHT22;62113;45.624;11.700;2023-04-03T02:17:50;14.70;54.70
63013;DHT22;62113;45.624;11.700;2023-04-03T02:20:16;14.70;54.70
63013;DHT22;62113;45.624;11.700;2023-04-03T02:22:42;14.70;54.80
63013;DHT22;62113;45.624;11.700;2023-04-03T02:25:08;14.70;54.80
63013;DHT22;62113;45.624;11.700;2023-04-03T02:27:33;14.70;54.80
63013;DHT22;62113;45.624;11.700;2023-04-03T02:29:59;14.70;54.80
63013;DHT22;62113;45.624;11.700;2023-04-03T02:32:24;14.70;54.80
63013;DHT22;62113;45.624;11.700;2023-04-03T02:34:50;14.60;54.80
63013;DHT22;62113;45.624;11.700;2023-04-03T02:37:16;14.70;54.90
63013;DHT22;62113;45.624;11.700;2023-04-03T02:39:41;14.70;54.80
63013;DHT22;62113;45.624;11.700;2023-04-03T02:42:07;14.70;54.70
63013;DHT22;62113;45.624;11.700;2023-04-03T02:44:33;14.60;54.60
63013;DHT22;62113;45.624;11.700;2023-04-03T02:46:58;14.50;54.60
63013;DHT22;62113;45.624;11.700;2023-04-03T02:49:24;14.50;54.60
63013;DHT22;62113;45.624;11.700;2023-04-03T02:51:49;14.50;54.60
63013;DHT22;62113;45.624;11.700;2023-04-03T02:54:16;14.50;54.60
63013;DHT22;62113;45.624;11.700;2023-04-03T02:56:42;14.50;54.50
63013;DHT22;62113;45.624;11.700;2023-04-03T02:59:07;14.50;54.40
63013;DHT22;62113;45.624;11.700;2023-04-03T03:01:33;14.50;54.10
63013;DHT22;62113;45.624;11.700;2023-04-03T03:03:59;14.40;54.10
63013;DHT22;62113;45.624;11.700;2023-04-03T03:06:25;14.30;54.30
63013;DHT22;62113;45.624;11.700;2023-04-03T03:08:51;14.30;54.50
63013;DHT22;62113;45.624;11.700;2023-04-03T03:11:17;14.20;54.70
63013;DHT22;62113;45.624;11.700;2023-04-03T03:13:42;14.20;55.00
63013;DHT22;62113;45.624;11.700;2023-04-03T03:16:08;14.20;55.00
63013;DHT22;62113;45.624;11.700;2023-04-03T03:18:35;14.20;55.00
63013;DHT22;62113;45.624;11.700;2023-04-03T03:21:02;14.20;55.20
63013;DHT22;62113;45.624;11.700;2023-04-03T03:23:30;14.20;55.20
63013;DHT22;62113;45.624;11.700;2023-04-03T03:26:08;14.30;55.10
63013;DHT22;62113;45.624;11.700;2023-04-03T03:28:35;14.30;55.10
63013;DHT22;62113;45.624;11.700;2023-04-03T03:31:02;14.30;55.00
63013;DHT22;62113;45.624;11.700;2023-04-03T03:33:27;14.30;55.00
63013;DHT22;62113;45.624;11.700;2023-04-03T03:35:54;14.40;55.00
63013;DHT22;62113;45.624;11.700;2023-04-03T03:38:20;14.40;54.90
63013;DHT22;62113;45.624;11.700;2023-04-03T03:40:47;14.50;54.90
63013;DHT22;62113;45.624;11.700;2023-04-03T03:43:14;14.50;54.90
63013;DHT22;62113;45.624;11.700;2023-04-03T03:45:40;14.50;54.80
63013;DHT22;62113;45.624;11.700;2023-04-03T03:48:05;14.50;54.80
63013;DHT22;62113;45.624;11.700;2023-04-03T03:50:31;14.50;54.70
63013;DHT22;62113;45.624;11.700;2023-04-03T03:52:57;14.50;54.60
63013;DHT22;62113;45.624;11.700;2023-04-03T03:55:22;14.50;54.50
63013;DHT22;62113;45.624;11.700;2023-04-03T03:57:48;14.40;54.40
63013;DHT22;62113;45.624;11.700;2023-04-03T04:00:14;14.40;54.40
63013;DHT22;62113;45.624;11.700;2023-04-03T04:02:40;14.40;54.30
63013;DHT22;62113;45.624;11.700;2023-04-03T04:05:06;14.30;54.20
63013;DHT22;62113;45.624;11.700;2023-04-03T04:07:31;14.30;54.20
63013;DHT22;62113;45.624;11.700;2023-04-03T04:09:57;14.30;54.10
63013;DHT22;62113;45.624;11.700;2023-04-03T04:12:22;14.20;54.10
63013;DHT22;62113;45.624;11.700;2023-04-03T04:14:48;14.20;54.00
63013;DHT22;62113;45.624;11.700;2023-04-03T04:17:14;14.10;53.90
63013;DHT22;62113;45.624;11.700;2023-04-03T04:19:40;14.10;53.80
63013;DHT22;62113;45.624;11.700;2023-04-03T04:22:05;14.00;53.70
63013;DHT22;62113;45.624;11.700;2023-04-03T04:24:31;14.00;53.60
63013;DHT22;62113;45.624;11.700;2023-04-03T04:26:57;13.90;53.70
63013;DHT22;62113;45.624;11.700;2023-04-03T04:29:22;13.80;53.70
63013;DHT22;62113;45.624;11.700;2023-04-03T04:31:48;13.80;53.70
63013;DHT22;62113;45.624;11.700;2023-04-03T04:34:14;13.80;53.60
63013;DHT22;62113;45.624;11.700;2023-04-03T04:36:39;13.70;53.70
63013;DHT22;62113;45.624;11.700;2023-04-03T04:39:05;13.70;53.70
63013;DHT22;62113;45.624;11.700;2023-04-03T04:41:31;13.70;53.70
63013;DHT22;62113;45.624;11.700;2023-04-03T04:43:57;13.60;53.80
63013;DHT22;62113;45.624;11.700;2023-04-03T04:46:23;13.60;53.80
63013;DHT22;62113;45.624;11.700;2023-04-03T04:48:49;13.60;53.90
63013;DHT22;62113;45.624;11.700;2023-04-03T04:51:15;13.60;54.00
63013;DHT22;62113;45.624;11.700;2023-04-03T04:53:41;13.60;54.00
63013;DHT22;62113;45.624;11.700;2023-04-03T04:56:07;13.60;53.90
63013;DHT22;62113;45.624;11.700;2023-04-03T04:58:34;13.50;54.00
63013;DHT22;62113;45.624;11.700;2023-04-03T05:01:07;13.50;54.10
63013;DHT22;62113;45.624;11.700;2023-04-03T05:03:33;13.50;54.10
63013;DHT22;62113;45.624;11.700;2023-04-03T05:05:59;13.50;54.10
63013;DHT22;62113;45.624;11.700;2023-04-03T05:08:25;13.50;54.10
63013;DHT22;62113;45.624;11.700;2023-04-03T05:10:51;13.50;54.20
63013;DHT22;62113;45.624;11.700;2023-04-03T05:13:18;13.60;54.20
63013;DHT22;62113;45.624;11.700;2023-04-03T05:15:44;13.70;54.20
63013;DHT22;62113;45.624;11.700;2023-04-03T05:18:10;13.70;54.30
63013;DHT22;62113;45.624;11.700;2023-04-03T05:20:36;13.90;54.30
63013;DHT22;62113;45.624;11.700;2023-04-03T05:23:02;14.20;54.20
63013;DHT22;62113;45.624;11.700;2023-04-03T05:25:28;14.50;53.80
63013;DHT22;62113;45.624;11.700;2023-04-03T05:27:54;14.80;53.40
63013;DHT22;62113;45.624;11.700;2023-04-03T05:30:19;15.20;52.70
63013;DHT22;62113;45.624;11.700;2023-04-03T05:32:45;15.80;51.80
63013;DHT22;62113;45.624;11.700;2023-04-03T05:35:11;16.40;50.80
63013;DHT22;62113;45.624;11.700;2023-04-03T05:37:37;16.60;49.70
63013;DHT22;62113;45.624;11.700;2023-04-03T05:40:04;16.80;49.50
63013;DHT22;62113;45.624;11.700;2023-04-03T05:42:29;16.90;48.90
63013;DHT22;62113;45.624;11.700;2023-04-03T05:44:55;17.00;48.90
63013;DHT22;62113;45.624;11.700;2023-04-03T05:47:21;17.10;48.80
63013;DHT22;62113;45.624;11.700;2023-04-03T05:49:47;17.00;48.80
63013;DHT22;62113;45.624;11.700;2023-04-03T05:54:47;16.70;49.30
63013;DHT22;62113;45.624;11.700;2023-04-03T05:57:14;16.50;49.70
63013;DHT22;62113;45.624;11.700;2023-04-03T05:59:42;16.50;49.60
63013;DHT22;62113;45.624;11.700;2023-04-03T06:02:13;16.70;49.50
63013;DHT22;62113;45.624;11.700;2023-04-03T06:04:39;16.80;49.30
63013;DHT22;62113;45.624;11.700;2023-04-03T06:07:06;17.00;49.00
63013;DHT22;62113;45.624;11.700;2023-04-03T06:09:33;17.10;48.90
63013;DHT22;62113;45.624;11.700;2023-04-03T06:11:58;17.30;48.70
63013;DHT22;62113;45.624;11.700;2023-04-03T06:14:25;17.70;48.00
63013;DHT22;62113;45.624;11.700;2023-04-03T06:16:51;18.70;46.60
63013;DHT22;62113;45.624;11.700;2023-04-03T06:19:17;19.80;43.90
63013;DHT22;62113;45.624;11.700;2023-04-03T06:21:43;20.70;41.30
63013;DHT22;62113;45.624;11.700;2023-04-03T06:24:13;21.50;40.00
63013;DHT22;62113;45.624;11.700;2023-04-03T06:26:39;22.40;39.80
63013;DHT22;62113;45.624;11.700;2023-04-03T06:29:05;23.20;38.00
63013;DHT22;62113;45.624;11.700;2023-04-03T06:31:31;24.00;35.80
63013;DHT22;62113;45.624;11.700;2023-04-03T06:33:56;24.70;34.80
63013;DHT22;62113;45.624;11.700;2023-04-03T06:36:22;25.50;33.90
63013;DHT22;62113;45.624;11.700;2023-04-03T06:38:48;26.60;31.20
63013;DHT22;62113;45.624;11.700;2023-04-03T06:41:14;27.20;30.40
63013;DHT22;62113;45.624;11.700;2023-04-03T06:43:42;27.70;28.20
63013;DHT22;62113;45.624;11.700;2023-04-03T06:46:15;28.00;28.60
63013;DHT22;62113;45.624;11.700;2023-04-03T06:48:42;28.10;27.90
63013;DHT22;62113;45.624;11.700;2023-04-03T06:51:15;27.90;28.80
63013;DHT22;62113;45.624;11.700;2023-04-03T06:53:42;27.10;29.40
63013;DHT22;62113;45.624;11.700;2023-04-03T06:56:08;26.10;30.20
63013;DHT22;62113;45.624;11.700;2023-04-03T06:58:33;25.00;31.40
63013;DHT22;62113;45.624;11.700;2023-04-03T07:00:59;23.90;32.80
63013;DHT22;62113;45.624;11.700;2023-04-03T07:03:25;23.00;34.40
63013;DHT22;62113;45.624;11.700;2023-04-03T07:05:51;22.00;35.90
63013;DHT22;62113;45.624;11.700;2023-04-03T07:08:16;21.20;37.10
63013;DHT22;62113;45.624;11.700;2023-04-03T07:10:42;20.50;38.60
63013;DHT22;62113;45.624;11.700;2023-04-03T07:13:07;19.90;40.10
63013;DHT22;62113;45.624;11.700;2023-04-03T07:15:33;19.30;40.60
63013;DHT22;62113;45.624;11.700;2023-04-03T07:17:59;18.90;41.60
63013;DHT22;62113;45.624;11.700;2023-04-03T07:20:25;18.60;42.40
63013;DHT22;62113;45.624;11.700;2023-04-03T07:22:50;18.30;43.40
63013;DHT22;62113;45.624;11.700;2023-04-03T07:25:16;18.10;44.80
63013;DHT22;62113;45.624;11.700;2023-04-03T07:27:42;17.80;45.10
63013;DHT22;62113;45.624;11.700;2023-04-03T07:30:08;17.60;45.90
63013;DHT22;62113;45.624;11.700;2023-04-03T07:32:34;17.40;45.90
63013;DHT22;62113;45.624;11.700;2023-04-03T07:35:01;17.20;46.60
63013;DHT22;62113;45.624;11.700;2023-04-03T07:37:26;17.20;47.70
63013;DHT22;62113;45.624;11.700;2023-04-03T07:39:52;17.20;48.10
63013;DHT22;62113;45.624;11.700;2023-04-03T07:42:17;17.10;48.10
63013;DHT22;62113;45.624;11.700;2023-04-03T07:44:43;17.10;48.10
63013;DHT22;62113;45.624;11.700;2023-04-03T07:47:09;17.30;48.10
63013;DHT22;62113;45.624;11.700;2023-04-03T07:49:35;17.90;47.80
63013;DHT22;62113;45.624;11.700;2023-04-03T07:52:03;19.00;46.60
63013;DHT22;62113;45.624;11.700;2023-04-03T07:54:29;20.30;42.80
63013;DHT22;62113;45.624;11.700;2023-04-03T07:56:55;21.20;41.40
63013;DHT22;62113;45.624;11.700;2023-04-03T07:59:22;21.30;40.00
63013;DHT22;62113;45.624;11.700;2023-04-03T08:01:47;21.00;39.20
63013;DHT22;62113;45.624;11.700;2023-04-03T08:04:13;20.50;39.10
63013;DHT22;62113;45.624;11.700;2023-04-03T08:06:38;20.00;40.70
63013;DHT22;62113;45.624;11.700;2023-04-03T08:09:04;19.70;41.10
63013;DHT22;62113;45.624;11.700;2023-04-03T08:11:30;19.40;41.40
63013;DHT22;62113;45.624;11.700;2023-04-03T08:13:56;19.20;41.60
63013;DHT22;62113;45.624;11.700;2023-04-03T08:16:23;19.00;41.40
63013;DHT22;62113;45.624;11.700;2023-04-03T08:18:52;18.70;42.10
63013;DHT22;62113;45.624;11.700;2023-04-03T08:21:17;18.50;42.40
63013;DHT22;62113;45.624;11.700;2023-04-03T08:23:43;18.40;42.60
63013;DHT22;62113;45.624;11.700;2023-04-03T08:26:11;18.40;42.40
63013;DHT22;62113;45.624;11.700;2023-04-03T08:28:38;18.30;42.70
63013;DHT22;62113;45.624;11.700;2023-04-03T08:31:10;18.40;43.10
63013;DHT22;62113;45.624;11.700;2023-04-03T08:33:36;18.40;43.10
63013;DHT22;62113;45.624;11.700;2023-04-03T08:36:07;18.50;43.00
63013;DHT22;62113;45.624;11.700;2023-04-03T08:38:33;18.50;42.40
63013;DHT22;62113;45.624;11.700;2023-04-03T08:41:16;18.60;42.90
63013;DHT22;62113;45.624;11.700;2023-04-03T08:49:24;18.90;41.30
63013;DHT22;62113;45.624;11.700;2023-04-03T08:51:52;18.80;41.50
63013;DHT22;62113;45.624;11.700;2023-04-03T08:55:13;18.90;42.10
63013;DHT22;62113;45.624;11.700;2023-04-03T08:57:10;19.00;42.10
63013;DHT22;62113;45.624;11.700;2023-04-03T08:59:38;19.20;41.10
63013;DHT22;62113;45.624;11.700;2023-04-03T09:02:27;19.20;40.00
63013;DHT22;62113;45.624;11.700;2023-04-03T09:04:54;19.30;40.40
63013;DHT22;62113;45.624;11.700;2023-04-03T09:07:33;19.30;40.20
63013;DHT22;62113;45.624;11.700;2023-04-03T09:10:01;19.30;40.10
63013;DHT22;62113;45.624;11.700;2023-04-03T09:12:32;19.30;40.60
63013;DHT22;62113;45.624;11.700;2023-04-03T09:17:49;19.30;40.00
63013;DHT22;62113;45.624;11.700;2023-04-03T09:22:50;19.40;40.10
63013;DHT22;62113;45.624;11.700;2023-04-03T09:27:47;19.30;40.20
63013;DHT22;62113;45.624;11.700;2023-04-03T09:30:15;19.20;40.70
63013;DHT22;62113;45.624;11.700;2023-04-03T09:32:44;18.90;41.20
63013;DHT22;62113;45.624;11.700;2023-04-03T09:35:26;18.60;41.10
63013;DHT22;62113;45.624;11.700;2023-04-03T09:38:00;18.40;42.10
63013;DHT22;62113;45.624;11.700;2023-04-03T09:45:44;18.20;42.00
63013;DHT22;62113;45.624;11.700;2023-04-03T09:53:43;18.10;43.10
63013;DHT22;62113;45.624;11.700;2023-04-03T09:58:43;18.00;42.90
63013;DHT22;62113;45.624;11.700;2023-04-03T10:01:33;18.00;43.00
63013;DHT22;62113;45.624;11.700;2023-04-03T10:04:17;18.00;42.40
63013;DHT22;62113;45.624;11.700;2023-04-03T10:06:46;17.90;42.10
63013;DHT22;62113;45.624;11.700;2023-04-03T10:09:25;17.70;42.70
63013;DHT22;62113;45.624;11.700;2023-04-03T10:12:06;17.70;43.90
63013;DHT22;62113;45.624;11.700;2023-04-03T10:14:33;17.60;43.80
63013;DHT22;62113;45.624;11.700;2023-04-03T10:22:44;17.60;42.50
63013;DHT22;62113;45.624;11.700;2023-04-03T10:26:02;17.60;42.70
63013;DHT22;62113;45.624;11.700;2023-04-03T10:28:47;17.80;42.70
63013;DHT22;62113;45.624;11.700;2023-04-03T10:31:29;18.10;42.50
63013;DHT22;62113;45.624;11.700;2023-04-03T10:36:59;18.70;39.60
63013;DHT22;62113;45.624;11.700;2023-04-03T10:39:39;18.80;39.90
63013;DHT22;62113;45.624;11.700;2023-04-03T10:52:43;18.70;39.10
63013;DHT22;62113;45.624;11.700;2023-04-03T10:55:24;18.70;39.50
63013;DHT22;62113;45.624;11.700;2023-04-03T10:57:56;18.60;39.70
63013;DHT22;62113;45.624;11.700;2023-04-03T11:00:39;18.30;39.90
63013;DHT22;62113;45.624;11.700;2023-04-03T11:03:22;18.10;40.30
63013;DHT22;62113;45.624;11.700;2023-04-03T11:05:52;17.80;40.50
63013;DHT22;62113;45.624;11.700;2023-04-03T11:08:44;17.70;41.50
63013;DHT22;62113;45.624;11.700;2023-04-03T11:11:17;17.50;42.70
63013;DHT22;62113;45.624;11.700;2023-04-03T11:16:48;17.40;43.00
63013;DHT22;62113;45.624;11.700;2023-04-03T11:19:22;17.50;42.20
63013;DHT22;62113;45.624;11.700;2023-04-03T11:21:57;17.70;41.50
63013;DHT22;62113;45.624;11.700;2023-04-03T11:24:29;17.70;41.20
63013;DHT22;62113;45.624;11.700;2023-04-03T11:27:00;17.70;41.70
63013;DHT22;62113;45.624;11.700;2023-04-03T11:29:35;17.70;42.50
63013;DHT22;62113;45.624;11.700;2023-04-03T11:34:50;17.70;41.40
63013;DHT22;62113;45.624;11.700;2023-04-03T11:37:38;17.70;40.90
63013;DHT22;62113;45.624;11.700;2023-04-03T11:40:25;17.70;40.60
63013;DHT22;62113;45.624;11.700;2023-04-03T11:42:55;17.60;42.10
63013;DHT22;62113;45.624;11.700;2023-04-03T11:50:38;17.60;41.10
63013;DHT22;62113;45.624;11.700;2023-04-03T12:29:33;18.70;39.80
63013;DHT22;62113;45.624;11.700;2023-04-03T12:35:08;18.70;39.00
63013;DHT22;62113;45.624;11.700;2023-04-03T12:46:14;19.10;38.20
63013;DHT22;62113;45.624;11.700;2023-04-03T12:51:15;19.00;38.20
63013;DHT22;62113;45.624;11.700;2023-04-03T12:53:42;19.00;38.00
63013;DHT22;62113;45.624;11.700;2023-04-03T12:56:38;19.00;38.30
63013;DHT22;62113;45.624;11.700;2023-04-03T12:59:25;18.90;39.10
63013;DHT22;62113;45.624;11.700;2023-04-03T13:01:55;18.90;39.00
63013;DHT22;62113;45.624;11.700;2023-04-03T13:04:21;19.00;39.10
63013;DHT22;62113;45.624;11.700;2023-04-03T13:06:47;19.10;38.60
63013;DHT22;62113;45.624;11.700;2023-04-03T13:09:28;19.00;38.10
63013;DHT22;62113;45.624;11.700;2023-04-03T13:12:03;19.00;38.40
63013;DHT22;62113;45.624;11.700;2023-04-03T13:14:29;19.00;38.60
63013;DHT22;62113;45.624;11.700;2023-04-03T13:17:09;19.00;38.20
63013;DHT22;62113;45.624;11.700;2023-04-03T13:19:35;19.00;38.40
63013;DHT22;62113;45.624;11.700;2023-04-03T13:22:06;19.10;37.60
63013;DHT22;62113;45.624;11.700;2023-04-03T13:24:35;19.10;36.70
63013;DHT22;62113;45.624;11.700;2023-04-03T13:27:02;19.00;37.20
63013;DHT22;62113;45.624;11.700;2023-04-03T13:29:36;19.00;37.40
63013;DHT22;62113;45.624;11.700;2023-04-03T13:32:03;19.00;37.80
63013;DHT22;62113;45.624;11.700;2023-04-03T13:34:43;19.00;38.10
63013;DHT22;62113;45.624;11.700;2023-04-03T13:37:24;19.10;38.00
63013;DHT22;62113;45.624;11.700;2023-04-03T13:42:35;19.10;37.60
63013;DHT22;62113;45.624;11.700;2023-04-03T13:45:18;19.10;37.50
63013;DHT22;62113;45.624;11.700;2023-04-03T13:47:46;19.20;37.60
63013;DHT22;62113;45.624;11.700;2023-04-03T13:50:14;19.10;37.00
63013;DHT22;62113;45.624;11.700;2023-04-03T13:52:50;19.10;37.70
63013;DHT22;62113;45.624;11.700;2023-04-03T13:55:24;19.10;36.70
63013;DHT22;62113;45.624;11.700;2023-04-03T13:58:00;19.10;37.40
63013;DHT22;62113;45.624;11.700;2023-04-03T14:02:57;19.10;36.30
63013;DHT22;62113;45.624;11.700;2023-04-03T14:05:23;19.10;37.00
63013;DHT22;62113;45.624;11.700;2023-04-03T14:07:51;19.10;37.30
63013;DHT22;62113;45.624;11.700;2023-04-03T14:10:17;19.10;36.90
63013;DHT22;62113;45.624;11.700;2023-04-03T14:12:43;19.10;37.00
63013;DHT22;62113;45.624;11.700;2023-04-03T14:15:22;19.20;37.50
63013;DHT22;62113;45.624;11.700;2023-04-03T14:17:49;19.20;37.20
63013;DHT22;62113;45.624;11.700;2023-04-03T14:20:18;19.20;37.70
63013;DHT22;62113;45.624;11.700;2023-04-03T14:22:45;19.10;37.90
63013;DHT22;62113;45.624;11.700;2023-04-03T14:25:10;19.00;37.90
63013;DHT22;62113;45.624;11.700;2023-04-03T14:27:40;18.70;36.60
63013;DHT22;62113;45.624;11.700;2023-04-03T14:30:12;18.70;36.50
63013;DHT22;62113;45.624;11.700;2023-04-03T14:32:41;18.60;36.60
63013;DHT22;62113;45.624;11.700;2023-04-03T14:35:07;18.60;37.30
63013;DHT22;62113;45.624;11.700;2023-04-03T14:37:33;18.60;37.60
63013;DHT22;62113;45.624;11.700;2023-04-03T14:40:00;18.60;37.60
63013;DHT22;62113;45.624;11.700;2023-04-03T14:42:33;18.60;37.60
63013;DHT22;62113;45.624;11.700;2023-04-03T14:45:05;18.50;38.00
63013;DHT22;62113;45.624;11.700;2023-04-03T14:47:31;18.50;37.80
63013;DHT22;62113;45.624;11.700;2023-04-03T14:49:59;18.50;37.80
63013;DHT22;62113;45.624;11.700;2023-04-03T14:52:28;18.40;37.30
63013;DHT22;62113;45.624;11.700;2023-04-03T14:54:54;18.30;37.00
63013;DHT22;62113;45.624;11.700;2023-04-03T14:57:22;18.20;37.40
63013;DHT22;62113;45.624;11.700;2023-04-03T14:59:49;18.00;36.80
63013;DHT22;62113;45.624;11.700;2023-04-03T15:02:37;17.90;36.40
63013;DHT22;62113;45.624;11.700;2023-04-03T15:05:05;17.70;35.10
63013;DHT22;62113;45.624;11.700;2023-04-03T15:07:43;17.50;36.50
63013;DHT22;62113;45.624;11.700;2023-04-03T15:10:30;17.40;37.40
63013;DHT22;62113;45.624;11.700;2023-04-03T15:12:56;17.40;37.30
63013;DHT22;62113;45.624;11.700;2023-04-03T15:15:23;17.30;36.30
63013;DHT22;62113;45.624;11.700;2023-04-03T15:17:55;17.20;36.20
63013;DHT22;62113;45.624;11.700;2023-04-03T15:20:25;17.10;35.90
63013;DHT22;62113;45.624;11.700;2023-04-03T15:22:52;17.00;36.60
63013;DHT22;62113;45.624;11.700;2023-04-03T15:25:18;17.00;36.60
63013;DHT22;62113;45.624;11.700;2023-04-03T15:27:44;17.00;36.30
63013;DHT22;62113;45.624;11.700;2023-04-03T15:30:15;17.00;36.70
63013;DHT22;62113;45.624;11.700;2023-04-03T15:32:41;16.90;36.50
63013;DHT22;62113;45.624;11.700;2023-04-03T15:35:07;16.80;36.30
63013;DHT22;62113;45.624;11.700;2023-04-03T15:37:33;16.80;37.90
63013;DHT22;62113;45.624;11.700;2023-04-03T15:39:58;16.70;37.80
63013;DHT22;62113;45.624;11.700;2023-04-03T15:42:24;16.70;38.00
63013;DHT22;62113;45.624;11.700;2023-04-03T15:44:50;16.60;37.20
63013;DHT22;62113;45.624;11.700;2023-04-03T15:47:16;16.70;37.40
63013;DHT22;62113;45.624;11.700;2023-04-03T15:49:41;16.60;37.40
63013;DHT22;62113;45.624;11.700;2023-04-03T15:52:07;16.50;37.70
63013;DHT22;62113;45.624;11.700;2023-04-03T15:54:33;16.60;36.90
63013;DHT22;62113;45.624;11.700;2023-04-03T15:56:59;16.60;36.80
63013;DHT22;62113;45.624;11.700;2023-04-03T15:59:24;16.60;36.10
63013;DHT22;62113;45.624;11.700;2023-04-03T16:01:51;16.50;36.50
63013;DHT22;62113;45.624;11.700;2023-04-03T16:04:17;16.50;36.00
63013;DHT22;62113;45.624;11.700;2023-04-03T16:06:43;16.50;36.30
63013;DHT22;62113;45.624;11.700;2023-04-03T16:09:09;16.50;37.40
63013;DHT22;62113;45.624;11.700;2023-04-03T16:11:35;16.50;37.20
63013;DHT22;62113;45.624;11.700;2023-04-03T16:14:02;16.50;37.30
63013;DHT22;62113;45.624;11.700;2023-04-03T16:16:28;16.50;37.30
63013;DHT22;62113;45.624;11.700;2023-04-03T16:18:54;16.50;37.50
63013;DHT22;62113;45.624;11.700;2023-04-03T16:21:21;16.50;37.30
63013;DHT22;62113;45.624;11.700;2023-04-03T16:23:47;16.40;37.60
63013;DHT22;62113;45.624;11.700;2023-04-03T16:26:13;16.40;37.40
63013;DHT22;62113;45.624;11.700;2023-04-03T16:28:39;16.40;37.70
63013;DHT22;62113;45.624;11.700;2023-04-03T16:31:06;16.40;38.00
63013;DHT22;62113;45.624;11.700;2023-04-03T16:33:32;16.30;37.70
63013;DHT22;62113;45.624;11.700;2023-04-03T16:35:58;16.30;37.40
63013;DHT22;62113;45.624;11.700;2023-04-03T16:38:24;16.20;36.50
63013;DHT22;62113;45.624;11.700;2023-04-03T16:40:50;16.20;36.60
63013;DHT22;62113;45.624;11.700;2023-04-03T16:43:17;16.20;36.30
63013;DHT22;62113;45.624;11.700;2023-04-03T16:45:43;16.20;36.80
63013;DHT22;62113;45.624;11.700;2023-04-03T16:48:09;16.10;36.60
63013;DHT22;62113;45.624;11.700;2023-04-03T16:50:34;16.00;36.80
63013;DHT22;62113;45.624;11.700;2023-04-03T16:53:00;16.00;36.90
63013;DHT22;62113;45.624;11.700;2023-04-03T16:55:28;16.00;36.60
63013;DHT22;62113;45.624;11.700;2023-04-03T16:57:53;16.00;37.00
63013;DHT22;62113;45.624;11.700;2023-04-03T17:00:20;16.00;37.00
63013;DHT22;62113;45.624;11.700;2023-04-03T17:02:46;16.00;36.80
63013;DHT22;62113;45.624;11.700;2023-04-03T17:05:12;16.00;37.00
63013;DHT22;62113;45.624;11.700;2023-04-03T17:07:37;16.00;37.20
63013;DHT22;62113;45.624;11.700;2023-04-03T17:10:03;15.90;37.00
63013;DHT22;62113;45.624;11.700;2023-04-03T17:12:29;16.00;36.80
63013;DHT22;62113;45.624;11.700;2023-04-03T17:14:54;15.90;36.70
63013;DHT22;62113;45.624;11.700;2023-04-03T17:17:22;15.90;36.90
63013;DHT22;62113;45.624;11.700;2023-04-03T17:19:48;15.90;37.00
63013;DHT22;62113;45.624;11.700;2023-04-03T17:22:14;15.90;37.20
63013;DHT22;62113;45.624;11.700;2023-04-03T17:24:41;16.00;37.30